createdAt,value
2018-11-05T00:01:21.168Z,98.30
2018-11-05T00:03:49.492Z,98.80
2018-11-05T00:06:17.799Z,98.68
2018-11-05T00:08:46.223Z,98.40
2018-11-05T00:11:14.611Z,98.18
2018-11-05T00:13:42.939Z,98.09
2018-11-05T00:16:11.387Z,98.08
2018-11-05T00:18:39.683Z,98.52
2018-11-05T00:21:08.018Z,98.30
2018-11-05T00:23:36.329Z,98.25
2018-11-05T00:26:04.688Z,97.92
2018-11-05T00:28:32.983Z,98.66
2018-11-05T00:31:01.363Z,98.39
2018-11-05T00:33:29.653Z,98.49
2018-11-05T00:35:58.036Z,98.41
2018-11-05T00:38:26.345Z,98.76
2018-11-05T00:40:54.675Z,98.44
2018-11-05T00:43:23.016Z,98.32
2018-11-05T00:45:51.507Z,98.70
2018-11-05T00:48:19.683Z,98.65
2018-11-05T00:50:48.020Z,98.71
2018-11-05T00:53:16.442Z,98.66
2018-11-05T00:55:45.219Z,98.38
2018-11-05T00:58:13.633Z,98.67
2018-11-05T01:00:41.929Z,98.94
2018-11-05T01:03:10.237Z,98.84
2018-11-05T01:05:38.564Z,99.41
2018-11-05T01:08:06.963Z,99.05
2018-11-05T01:10:35.284Z,98.89
2018-11-05T01:13:03.562Z,98.82
2018-11-05T01:15:31.987Z,98.66
2018-11-05T01:18:00.376Z,98.56
2018-11-05T01:20:28.702Z,98.73
2018-11-05T01:22:57.004Z,98.62
2018-11-05T01:25:25.378Z,98.21
2018-11-05T01:27:53.726Z,98.75
2018-11-05T01:30:22.037Z,97.31
2018-11-05T01:32:50.326Z,98.34
2018-11-05T01:35:18.788Z,98.04
2018-11-05T01:37:47.160Z,98.33
2018-11-05T01:40:16.022Z,98.24
2018-11-05T01:42:44.589Z,98.60
2018-11-05T01:45:13.918Z,98.57
2018-11-05T01:47:42.976Z,98.52
2018-11-05T01:50:13.222Z,98.88
2018-11-05T01:52:42.081Z,99.08
2018-11-05T01:55:10.786Z,98.77
2018-11-05T01:57:39.758Z,98.39
2018-11-05T02:00:10.273Z,98.74
2018-11-05T02:02:38.722Z,98.61
2018-11-05T02:05:08.078Z,98.51
2018-11-05T02:07:36.355Z,98.57
2018-11-05T02:10:07.349Z,98.47
2018-11-05T02:12:35.690Z,98.37
2018-11-05T02:15:04.088Z,98.36
2018-11-05T02:17:32.408Z,98.36
2018-11-05T02:20:00.698Z,98.11
2018-11-05T02:22:29.380Z,97.97
2018-11-05T02:24:57.770Z,98.28
2018-11-05T02:27:26.316Z,98.42
2018-11-05T02:29:54.622Z,98.17
2018-11-05T02:32:22.969Z,98.44
2018-11-05T02:34:51.246Z,98.49
2018-11-05T02:37:19.559Z,97.79
2018-11-05T02:39:47.879Z,98.26
2018-11-05T02:42:16.234Z,98.28
2018-11-05T02:44:44.774Z,98.33
2018-11-05T02:47:13.105Z,98.18
2018-11-05T02:49:41.476Z,98.32
2018-11-05T02:52:09.807Z,98.15
2018-11-05T02:54:38.095Z,98.21
2018-11-05T02:57:06.551Z,98.76
2018-11-05T02:59:34.846Z,98.54
2018-11-05T03:02:03.150Z,98.78
2018-11-05T03:04:31.465Z,98.52
2018-11-05T03:06:59.786Z,99.13
2018-11-05T03:09:28.094Z,98.89
2018-11-05T03:11:56.389Z,98.91
2018-11-05T03:14:24.840Z,99.19
2018-11-05T03:16:53.266Z,99.22
2018-11-05T03:19:21.580Z,99.03
2018-11-05T03:21:50.011Z,98.64
2018-11-05T03:24:18.342Z,98.65
2018-11-05T03:26:46.675Z,98.83
2018-11-05T03:29:15.023Z,98.90
2018-11-05T03:31:43.351Z,99.29
2018-11-05T03:34:11.627Z,99.46
2018-11-05T03:36:39.953Z,99.12
2018-11-05T03:39:10.400Z,99.13
2018-11-05T03:41:40.016Z,99.27
2018-11-05T03:44:08.802Z,98.66
2018-11-05T03:46:37.496Z,98.91
2018-11-05T03:49:06.464Z,99.00
2018-11-05T03:51:34.987Z,99.14
2018-11-05T03:54:03.431Z,99.21
2018-11-05T03:56:31.861Z,99.38
2018-11-05T03:59:00.275Z,99.10
2018-11-05T04:01:28.618Z,99.13
2018-11-05T04:03:56.945Z,99.02
2018-11-05T04:06:25.275Z,99.25
2018-11-05T04:08:53.554Z,99.42
2018-11-05T04:11:21.914Z,98.99
2018-11-05T04:13:50.249Z,98.97
2018-11-05T04:16:18.641Z,99.25
2018-11-05T04:18:47.060Z,99.69
2018-11-05T04:21:15.437Z,99.42
2018-11-05T04:23:43.762Z,99.37
2018-11-05T04:26:12.095Z,99.67
2018-11-05T04:28:40.531Z,99.94
2018-11-05T04:31:08.848Z,99.91
2018-11-05T04:33:37.158Z,100.00
2018-11-05T04:36:05.850Z,99.27
2018-11-05T04:39:15.913Z,99.63
2018-11-05T04:41:45.672Z,99.56
2018-11-05T04:44:16.870Z,99.50
2018-11-05T04:46:45.196Z,99.63
2018-11-05T04:49:13.522Z,99.82
2018-11-05T04:51:41.881Z,99.97
2018-11-05T04:54:10.218Z,99.30
2018-11-05T04:56:38.554Z,99.61
2018-11-05T04:59:07.491Z,99.75
2018-11-05T05:01:35.854Z,100.00
2018-11-05T05:04:04.205Z,99.92
2018-11-05T05:06:32.491Z,99.49
2018-11-05T05:09:00.804Z,99.55
2018-11-05T05:11:29.217Z,100.00
2018-11-05T05:13:57.548Z,100.00
2018-11-05T05:16:25.947Z,100.00
2018-11-05T05:18:54.178Z,100.00
2018-11-05T05:21:22.515Z,100.00
2018-11-05T05:23:50.913Z,100.00
2018-11-05T05:26:19.343Z,99.93
2018-11-05T05:28:47.697Z,100.00
2018-11-05T05:31:16.026Z,100.00
2018-11-05T05:33:44.372Z,100.00
2018-11-05T05:36:12.973Z,100.00
2018-11-05T05:38:41.279Z,100.00
2018-11-05T05:41:09.770Z,100.00
2018-11-05T05:43:38.174Z,100.00
2018-11-05T05:46:06.557Z,99.72
2018-11-05T05:48:35.043Z,100.00
2018-11-05T05:51:03.358Z,100.00
2018-11-05T05:53:31.771Z,100.00
2018-11-05T05:56:00.111Z,100.00
2018-11-05T05:58:28.482Z,99.80
2018-11-05T06:00:56.838Z,100.00
2018-11-05T06:03:25.176Z,99.90
2018-11-05T06:05:56.264Z,100.00
2018-11-05T06:08:25.506Z,100.00
2018-11-05T06:10:54.521Z,100.00
2018-11-05T06:13:23.003Z,100.00
2018-11-05T06:15:51.382Z,100.00
2018-11-05T06:18:19.674Z,100.00
2018-11-05T06:20:47.942Z,100.00
2018-11-05T06:23:16.444Z,100.00
2018-11-05T06:25:44.838Z,100.00
2018-11-05T06:28:13.217Z,100.00
2018-11-05T06:30:41.803Z,100.00
2018-11-05T06:33:10.353Z,100.00
2018-11-05T06:35:38.637Z,100.00
2018-11-05T06:38:06.963Z,100.00
2018-11-05T06:40:35.409Z,100.00
2018-11-05T06:43:03.782Z,100.00
2018-11-05T06:45:32.187Z,100.00
2018-11-05T06:48:00.416Z,100.00
2018-11-05T06:50:28.781Z,100.00
2018-11-05T06:52:57.156Z,100.00
2018-11-05T07:29:57.532Z,99.37
2018-11-05T07:32:25.838Z,99.74
2018-11-05T07:34:56.226Z,99.61
2018-11-05T07:37:25.925Z,99.26
2018-11-05T07:39:54.385Z,99.34
2018-11-05T07:42:22.866Z,99.59
2018-11-05T07:44:51.227Z,99.87
2018-11-05T07:47:19.588Z,99.84
2018-11-05T07:49:52.209Z,99.78
2018-11-05T07:52:20.618Z,99.98
2018-11-05T07:54:49.201Z,99.72
2018-11-05T07:57:17.528Z,99.09
2018-11-05T07:59:46.175Z,99.21
2018-11-05T08:02:15.012Z,99.36
2018-11-05T08:04:45.712Z,98.76
2018-11-05T08:07:14.667Z,98.37
2018-11-05T08:09:43.129Z,98.65
2018-11-05T08:12:11.608Z,98.05
2018-11-05T08:15:01.325Z,97.99
2018-11-05T08:17:39.797Z,98.11
2018-11-05T08:20:14.293Z,98.36
2018-11-05T08:22:45.159Z,98.15
2018-11-05T08:25:14.302Z,98.18
2018-11-05T08:30:33.613Z,97.85
2018-11-05T08:33:19.335Z,97.77
2018-11-05T08:35:54.207Z,97.52
2018-11-05T08:38:24.821Z,97.04
2018-11-05T08:40:59.156Z,97.18
2018-11-05T08:43:27.475Z,97.18
2018-11-05T08:46:01.358Z,96.92
2018-11-05T08:48:29.892Z,96.94
2018-11-05T08:51:09.452Z,96.68
2018-11-05T08:53:46.497Z,96.59
2018-11-05T08:58:58.871Z,96.09
2018-11-05T09:01:45.289Z,96.21
2018-11-05T09:04:19.583Z,96.21
2018-11-05T09:06:57.299Z,96.33
2018-11-05T09:09:32.273Z,95.02
2018-11-05T09:12:16.368Z,95.05
2018-11-05T09:17:49.895Z,94.39
2018-11-05T09:21:22.016Z,94.73
2018-11-05T09:23:52.594Z,94.88
2018-11-05T09:26:28.668Z,95.07
2018-11-05T09:28:59.983Z,94.95
2018-11-05T09:31:34.263Z,95.67
2018-11-05T09:34:02.717Z,95.29
2018-11-05T09:36:49.157Z,95.74
2018-11-05T09:39:17.533Z,95.67
2018-11-05T09:41:45.860Z,95.66
2018-11-05T09:44:29.765Z,94.88
2018-11-05T09:47:01.131Z,95.36
2018-11-05T09:49:42.029Z,94.66
2018-11-05T09:52:30.370Z,94.72
2018-11-05T09:55:21.547Z,94.33
2018-11-05T10:01:18.930Z,94.20
2018-11-05T10:04:01.591Z,93.95
2018-11-05T10:06:29.991Z,94.03
2018-11-05T10:09:04.260Z,93.61
2018-11-05T10:20:09.123Z,93.75
2018-11-05T10:22:42.595Z,93.77
2018-11-05T10:28:22.895Z,94.80
2018-11-05T10:34:51.610Z,94.15
2018-11-05T10:49:56.160Z,93.52
2018-11-05T10:52:35.411Z,93.30
2018-11-05T11:00:55.767Z,93.89
2018-11-05T11:03:28.686Z,94.12
2018-11-05T11:08:49.751Z,94.58
2018-11-05T11:11:36.506Z,94.70
2018-11-05T11:16:40.387Z,94.72
2018-11-05T11:19:15.653Z,93.70
2018-11-05T11:21:56.357Z,93.87
2018-11-05T11:24:35.352Z,93.73
2018-11-05T11:27:03.828Z,93.89
2018-11-05T11:29:32.447Z,93.12
2018-11-05T11:32:00.760Z,92.82
2018-11-05T11:34:29.081Z,92.51
2018-11-05T11:36:57.448Z,92.13
2018-11-05T11:39:25.965Z,91.12
2018-11-05T11:44:48.799Z,90.37
2018-11-05T11:50:02.593Z,90.21
2018-11-05T11:52:30.977Z,90.62
2018-11-05T11:54:59.410Z,90.28
2018-11-05T11:57:27.854Z,90.26
2018-11-05T11:59:56.183Z,90.45
2018-11-05T12:02:24.526Z,89.83
2018-11-05T12:04:52.934Z,90.32
2018-11-05T12:07:21.251Z,90.19
2018-11-05T12:09:49.641Z,89.96
2018-11-05T12:12:19.069Z,89.76
2018-11-05T12:14:47.539Z,89.75
2018-11-05T12:17:15.721Z,89.99
2018-11-05T12:19:44.035Z,89.90
2018-11-05T12:22:12.404Z,89.59
2018-11-05T12:24:40.766Z,89.04
2018-11-05T12:27:09.076Z,89.37
2018-11-05T12:29:37.387Z,89.41
2018-11-05T12:32:06.061Z,89.65
2018-11-05T12:34:34.380Z,89.34
2018-11-05T12:37:02.679Z,89.45
2018-11-05T12:39:31.215Z,89.59
2018-11-05T12:41:59.491Z,89.60
2018-11-05T12:44:27.811Z,89.82
2018-11-05T12:46:56.120Z,89.58
2018-11-05T12:49:24.782Z,89.37
2018-11-05T12:51:53.188Z,89.75
2018-11-05T12:54:21.508Z,89.73
2018-11-05T12:56:49.807Z,89.85
2018-11-05T12:59:18.118Z,90.17
2018-11-05T13:01:46.394Z,90.49
2018-11-05T13:04:14.969Z,90.29
2018-11-05T13:06:43.219Z,90.56
2018-11-05T13:09:11.518Z,91.14
2018-11-05T13:11:39.849Z,90.80
2018-11-05T13:14:08.163Z,90.91
2018-11-05T13:16:36.519Z,91.74
2018-11-05T13:19:04.848Z,91.79
2018-11-05T13:21:33.178Z,92.23
2018-11-05T13:24:01.534Z,91.42
2018-11-05T13:26:29.866Z,92.20
2018-11-05T13:28:58.410Z,91.87
2018-11-05T13:31:26.912Z,91.92
2018-11-05T13:33:55.270Z,92.12
2018-11-05T13:36:23.608Z,91.53
2018-11-05T13:38:52.376Z,91.58
2018-11-05T13:41:20.707Z,91.77
2018-11-05T13:43:49.085Z,91.14
2018-11-05T13:46:17.740Z,91.88
2018-11-05T13:48:46.363Z,91.27
2018-11-05T13:51:14.167Z,91.26
2018-11-05T13:53:42.706Z,91.82
2018-11-05T13:56:11.012Z,92.15
2018-11-05T13:58:39.469Z,92.44
2018-11-05T14:01:07.785Z,92.79
2018-11-05T14:03:36.369Z,92.42
2018-11-05T14:06:05.174Z,92.94
2018-11-05T14:08:33.561Z,93.11
2018-11-05T14:11:01.994Z,93.07
2018-11-05T14:13:30.338Z,93.17
2018-11-05T14:15:58.814Z,93.33
2018-11-05T14:18:27.264Z,93.33
2018-11-05T14:20:55.656Z,93.47
2018-11-05T14:23:23.979Z,93.94
2018-11-05T14:25:52.314Z,93.70
2018-11-05T14:28:20.890Z,93.71
2018-11-05T14:30:48.944Z,93.79
2018-11-05T14:33:17.250Z,93.93
2018-11-05T14:35:45.728Z,93.82
2018-11-05T14:38:14.036Z,93.23
2018-11-05T14:40:42.375Z,93.44
2018-11-05T14:43:10.767Z,93.11
2018-11-05T14:45:39.063Z,93.37
2018-11-05T14:48:07.452Z,93.50
2018-11-05T14:50:36.437Z,93.12
2018-11-05T14:53:04.812Z,93.13
2018-11-05T14:55:33.225Z,93.22
2018-11-05T14:58:01.605Z,93.86
2018-11-05T15:00:35.590Z,93.85
2018-11-05T15:03:03.976Z,93.47
2018-11-05T15:05:32.299Z,94.08
2018-11-05T15:08:00.581Z,94.09
2018-11-05T15:10:28.927Z,94.21
2018-11-05T15:12:57.330Z,94.62
2018-11-05T15:15:25.696Z,94.89
2018-11-05T15:17:53.980Z,95.23
2018-11-05T15:20:23.306Z,95.41
2018-11-05T15:22:51.611Z,95.29
2018-11-05T15:25:20.575Z,95.87
2018-11-05T15:27:48.910Z,96.35
2018-11-05T15:30:18.667Z,96.43
2018-11-05T15:32:47.095Z,96.56
2018-11-05T15:35:15.661Z,96.75
2018-11-05T15:37:44.372Z,96.78
2018-11-05T15:40:14.596Z,96.53
2018-11-05T15:42:42.940Z,96.74
2018-11-05T15:45:12.595Z,97.28
2018-11-05T15:47:41.378Z,98.15
2018-11-05T15:50:11.984Z,98.23
2018-11-05T15:52:40.590Z,97.91
2018-11-05T15:55:08.790Z,97.84
2018-11-05T15:57:38.042Z,98.32
2018-11-05T16:00:13.416Z,98.53
2018-11-05T16:02:41.827Z,98.61
2018-11-05T16:05:10.223Z,98.56
2018-11-05T16:07:38.558Z,99.24
2018-11-05T16:10:07.996Z,99.23
2018-11-05T16:12:36.888Z,99.18
2018-11-05T16:15:06.090Z,99.09
2018-11-05T16:17:34.468Z,99.32
2018-11-05T16:20:02.837Z,99.14
2018-11-05T16:22:31.142Z,99.51
2018-11-05T16:24:59.824Z,99.27
2018-11-05T16:27:28.132Z,99.26
2018-11-05T16:29:56.576Z,100.00
2018-11-05T16:32:25.516Z,100.00
2018-11-05T16:34:54.067Z,99.32
2018-11-05T16:37:22.345Z,99.64
2018-11-05T16:39:50.792Z,100.00
2018-11-05T16:42:19.031Z,98.83
2018-11-05T16:44:47.363Z,98.38
2018-11-05T16:47:15.742Z,97.63
2018-11-05T16:49:44.151Z,97.22
2018-11-05T16:52:12.692Z,97.62
2018-11-05T16:54:41.028Z,97.25
2018-11-05T16:57:09.750Z,97.48
2018-11-05T16:59:38.108Z,97.39
2018-11-05T17:02:13.508Z,97.35
2018-11-05T17:04:42.196Z,98.18
2018-11-05T17:07:16.487Z,98.77
2018-11-05T17:09:45.126Z,98.98
2018-11-05T17:12:13.871Z,98.16
2018-11-05T17:14:42.398Z,98.37
2018-11-05T17:17:12.221Z,98.50
2018-11-05T17:19:40.654Z,99.72
2018-11-05T17:22:10.087Z,99.41
2018-11-05T17:24:38.620Z,100.00
2018-11-05T17:27:07.582Z,99.90
2018-11-05T17:29:36.004Z,99.86
2018-11-05T17:32:04.382Z,99.81
2018-11-05T17:34:32.713Z,100.00
2018-11-05T17:37:01.057Z,100.00
2018-11-05T17:39:29.496Z,100.00
2018-11-05T17:41:57.823Z,100.00
2018-11-05T17:44:26.185Z,100.00
2018-11-05T17:46:54.935Z,100.00
2018-11-05T17:49:23.425Z,100.00
2018-11-05T17:51:51.862Z,100.00
2018-11-05T17:54:20.503Z,100.00
2018-11-05T17:56:49.123Z,100.00
2018-11-05T17:59:17.536Z,100.00
2018-11-05T18:01:45.874Z,100.00
2018-11-05T18:04:15.309Z,100.00
2018-11-05T18:06:43.860Z,99.82
2018-11-05T18:09:12.696Z,99.87
2018-11-05T18:11:41.427Z,99.72
2018-11-05T18:14:10.372Z,98.93
2018-11-05T18:19:57.592Z,99.43
2018-11-05T18:22:26.331Z,100.00
2018-11-05T18:24:55.004Z,100.00
2018-11-05T18:27:24.401Z,99.35
2018-11-05T18:29:53.213Z,99.51
2018-11-05T18:32:22.605Z,99.44
2018-11-05T18:34:52.307Z,99.05
2018-11-05T18:37:21.121Z,99.46
2018-11-05T18:39:50.517Z,99.64
2018-11-05T18:42:18.884Z,98.77
2018-11-05T18:44:47.610Z,99.71
2018-11-05T18:47:16.616Z,99.01
2018-11-05T18:49:46.880Z,99.03
2018-11-05T18:52:15.261Z,98.85
2018-11-05T18:54:43.928Z,99.78
2018-11-05T18:57:14.104Z,99.45
2018-11-05T18:59:42.894Z,99.83
2018-11-05T19:02:15.802Z,99.48
2018-11-05T19:04:44.115Z,99.54
2018-11-05T19:07:13.700Z,99.65
2018-11-05T19:09:42.191Z,99.39
2018-11-05T19:12:10.671Z,100.00
2018-11-05T19:14:39.128Z,100.00
2018-11-05T19:17:08.625Z,100.00
2018-11-05T19:19:37.983Z,100.00
2018-11-05T19:22:06.821Z,100.00
2018-11-05T19:24:36.051Z,100.00
2018-11-05T19:27:04.647Z,100.00
2018-11-05T19:29:33.174Z,100.00
2018-11-05T19:32:02.041Z,100.00
2018-11-05T19:34:30.512Z,100.00
2018-11-05T19:36:59.510Z,100.00
2018-11-05T19:39:27.898Z,100.00
2018-11-05T19:41:56.359Z,100.00
2018-11-05T19:44:24.661Z,100.00
2018-11-05T19:46:53.163Z,100.00
2018-11-05T19:49:21.519Z,100.00
2018-11-05T19:51:49.888Z,100.00
2018-11-05T19:54:18.220Z,100.00
2018-11-05T19:56:46.578Z,100.00
2018-11-05T19:59:14.950Z,100.00
2018-11-05T20:01:43.614Z,100.00
2018-11-05T20:04:12.298Z,100.00
2018-11-05T20:06:40.667Z,100.00
2018-11-05T20:09:09.207Z,100.00
2018-11-05T20:11:37.919Z,100.00
2018-11-05T20:14:06.445Z,100.00
2018-11-05T20:16:35.035Z,100.00
2018-11-05T20:19:03.654Z,100.00
2018-11-05T20:21:32.007Z,100.00
2018-11-05T20:24:00.710Z,100.00
2018-11-05T20:26:29.480Z,99.84
2018-11-05T20:28:58.029Z,100.00
2018-11-05T20:31:26.620Z,100.00
2018-11-05T20:33:55.027Z,100.00
2018-11-05T20:36:23.285Z,100.00
2018-11-05T20:38:51.791Z,100.00
2018-11-05T20:41:20.131Z,100.00
2018-11-05T20:43:48.838Z,100.00
2018-11-05T20:46:17.213Z,100.00
2018-11-05T20:48:45.562Z,100.00
2018-11-05T20:51:14.133Z,100.00
2018-11-05T20:53:42.877Z,100.00
2018-11-05T20:56:11.328Z,100.00
2018-11-05T20:58:39.726Z,100.00
2018-11-05T21:01:08.473Z,100.00
2018-11-05T21:03:36.728Z,100.00
2018-11-05T21:06:06.497Z,100.00
2018-11-05T21:08:34.896Z,100.00
2018-11-05T21:11:03.413Z,100.00
2018-11-05T21:13:31.996Z,100.00
2018-11-05T21:16:00.595Z,100.00
2018-11-05T21:18:29.098Z,100.00
2018-11-05T21:20:57.494Z,100.00
2018-11-05T21:23:25.836Z,100.00
2018-11-05T21:25:54.205Z,100.00
2018-11-05T21:28:22.586Z,100.00
2018-11-05T21:30:51.012Z,100.00
2018-11-05T21:33:19.456Z,100.00
2018-11-05T21:35:47.762Z,100.00
2018-11-05T21:38:16.082Z,100.00
2018-11-05T21:40:44.470Z,100.00
2018-11-05T21:43:12.849Z,100.00
2018-11-05T21:45:43.060Z,100.00
2018-11-05T21:48:11.638Z,100.00
2018-11-05T21:50:39.988Z,100.00
2018-11-05T21:53:08.622Z,100.00
2018-11-05T21:55:36.951Z,100.00
2018-11-05T21:58:05.511Z,100.00
2018-11-05T22:00:33.822Z,100.00
2018-11-05T22:03:05.102Z,100.00
2018-11-05T22:05:33.410Z,100.00
2018-11-05T22:08:01.763Z,100.00
2018-11-05T22:10:30.065Z,100.00
2018-11-05T22:12:58.550Z,100.00
2018-11-05T22:15:31.090Z,100.00
2018-11-05T22:17:59.962Z,100.00
2018-11-05T22:20:28.330Z,100.00
2018-11-05T22:22:56.639Z,100.00
2018-11-05T22:25:24.934Z,100.00
2018-11-05T22:27:53.355Z,100.00
2018-11-05T22:30:23.522Z,100.00
2018-11-05T22:32:51.849Z,100.00
2018-11-05T22:35:20.207Z,100.00
2018-11-05T22:37:48.502Z,100.00
2018-11-05T22:40:16.845Z,100.00
2018-11-05T22:42:45.151Z,100.00
2018-11-05T22:45:14.647Z,100.00
2018-11-05T22:47:43.610Z,100.00
2018-11-05T22:50:11.965Z,100.00
2018-11-05T22:52:40.875Z,100.00
2018-11-05T22:55:09.726Z,100.00
2018-11-05T22:57:38.140Z,100.00
2018-11-05T23:00:16.749Z,100.00
2018-11-05T23:02:50.566Z,100.00
2018-11-05T23:05:19.080Z,100.00
2018-11-05T23:07:47.363Z,100.00
2018-11-05T23:10:15.739Z,100.00
2018-11-05T23:12:44.015Z,100.00
2018-11-05T23:15:12.461Z,100.00
2018-11-05T23:17:40.743Z,100.00
2018-11-05T23:20:09.763Z,100.00
2018-11-05T23:22:40.609Z,100.00
2018-11-05T23:25:10.977Z,100.00
2018-11-05T23:27:39.340Z,100.00
2018-11-05T23:30:09.946Z,100.00
2018-11-05T23:32:39.439Z,100.00
2018-11-05T23:35:08.752Z,100.00
2018-11-05T23:37:37.997Z,100.00
2018-11-05T23:40:07.014Z,100.00
2018-11-05T23:42:35.489Z,100.00
2018-11-05T23:45:04.002Z,100.00
2018-11-05T23:47:32.341Z,100.00
2018-11-05T23:50:00.650Z,100.00
2018-11-05T23:52:29.599Z,100.00
2018-11-05T23:54:57.899Z,100.00
2018-11-05T23:57:26.171Z,100.00
2018-11-05T23:59:54.474Z,100.00
